Time;durP1;ratioP1;P1;durP2;ratioP2;P2;SDS_P1;SDS_P2;PMS_P1;PMS_P2;Temp;Humidity;BMP_temperature;BMP_pressure;BME280_temperature;BME280_humidity;BME280_pressure;Samples;Min_cycle;Max_cycle;Signal;HPM_P1;HPM_P2
2023/07/28 00:02:08;;;;;;;20.13;12.85;;;17.90;99.90;;;;;;4873367;28;94363;-33
2023/07/28 00:04:37;;;;;;;24.35;14.23;;;17.90;99.90;;;;;;4877674;28;95300;-35
2023/07/28 00:07:03;;;;;;;15.00;11.80;;;17.90;99.90;;;;;;4876947;28;94871;-36
2023/07/28 00:09:29;;;;;;;20.48;11.25;;;17.90;99.90;;;;;;4878587;28;93594;-40
2023/07/28 00:11:57;;;;;;;18.17;12.48;;;17.90;99.90;;;;;;4863339;28;92483;-34
2023/07/28 00:14:24;;;;;;;;;;;17.90;99.90;;;;;;4859872;28;94301;-33
2023/07/28 00:16:50;;;;;;;17.63;11.70;;;17.90;99.90;;;;;;4873675;28;94701;-34
2023/07/28 00:19:16;;;;;;;20.55;13.23;;;17.90;99.90;;;;;;4860237;28;94104;-34
2023/07/28 00:21:42;;;;;;;19.73;11.77;;;17.90;99.90;;;;;;4861025;28;93571;-32
2023/07/28 00:24:07;;;;;;;19.10;12.23;;;17.90;99.90;;;;;;4859314;28;94948;-36
2023/07/28 00:26:33;;;;;;;19.58;11.35;;;17.90;99.90;;;;;;4860041;28;94895;-37
2023/07/28 00:28:59;;;;;;;20.27;11.57;;;17.90;99.90;;;;;;4866073;28;93852;-33
2023/07/28 00:31:24;;;;;;;15.43;11.18;;;17.90;99.90;;;;;;4873350;28;94652;-35
2023/07/28 00:33:50;;;;;;;16.00;10.02;;;17.90;99.90;;;;;;4875442;28;94845;-36
2023/07/28 00:36:15;;;;;;;14.45;10.50;;;17.90;99.90;;;;;;4873082;28;94969;-35
2023/07/28 00:38:41;;;;;;;14.85;10.70;;;17.90;99.90;;;;;;4875731;28;93072;-34
2023/07/28 00:41:07;;;;;;;13.00;10.88;;;17.90;99.90;;;;;;4876494;28;94644;-39
2023/07/28 00:43:32;;;;;;;15.88;11.30;;;17.90;99.90;;;;;;4875511;28;95414;-35
2023/07/28 00:45:58;;;;;;;13.65;11.45;;;17.90;99.90;;;;;;4871556;28;95519;-32
2023/07/28 00:48:25;;;;;;;16.88;11.30;;;17.90;99.90;;;;;;4875815;28;93046;-32
2023/07/28 00:50:52;;;;;;;19.17;12.27;;;17.90;99.90;;;;;;4875794;28;94416;-39
2023/07/28 00:53:19;;;;;;;18.35;11.27;;;17.90;99.90;;;;;;4875919;28;95516;-32
2023/07/28 00:55:45;;;;;;;16.88;12.38;;;17.90;99.90;;;;;;4871289;28;94724;-39
2023/07/28 00:58:10;;;;;;;18.77;12.77;;;17.90;99.90;;;;;;4876751;28;94225;-35
2023/07/28 01:00:36;;;;;;;14.25;11.63;;;17.90;99.90;;;;;;4875944;28;92417;-36
2023/07/28 01:03:03;;;;;;;16.73;12.68;;;17.90;99.90;;;;;;4880461;28;94968;-33
2023/07/28 01:05:41;;;;;;;21.10;14.10;;;17.90;99.90;;;;;;4879312;28;94570;-38
2023/07/28 01:08:15;;;;;;;20.83;13.93;;;17.90;99.90;;;;;;4880050;28;96240;-34
2023/07/28 01:10:40;;;;;;;20.08;13.82;;;17.90;99.90;;;;;;4874875;28;92084;-36
2023/07/28 01:13:06;;;;;;;21.15;16.25;;;17.90;99.90;;;;;;4861920;28;94850;-34
2023/07/28 01:15:32;;;;;;;22.52;15.40;;;17.90;99.90;;;;;;4862702;28;95544;-36
2023/07/28 01:17:57;;;;;;;17.63;15.07;;;17.90;99.90;;;;;;4862089;28;92193;-33
2023/07/28 01:20:27;;;;;;;19.42;15.43;;;17.90;99.90;;;;;;4867997;28;95431;-34
2023/07/28 01:22:53;;;;;;;17.40;14.13;;;17.90;99.90;;;;;;4867422;28;96917;-38
2023/07/28 01:25:27;;;;;;;17.85;14.65;;;17.90;99.90;;;;;;4862108;28;94407;-32
2023/07/28 01:27:54;;;;;;;18.35;14.48;;;17.90;99.90;;;;;;4862224;28;94538;-38
2023/07/28 01:30:21;;;;;;;18.02;14.57;;;17.80;99.90;;;;;;4876883;28;93110;-32
2023/07/28 01:32:47;;;;;;;18.35;14.55;;;17.80;99.90;;;;;;4879653;28;95497;-34
2023/07/28 01:35:13;;;;;;;24.65;16.13;;;17.80;99.90;;;;;;4879200;28;96053;-34
2023/07/28 01:37:39;;;;;;;18.35;14.70;;;17.90;99.90;;;;;;4879944;28;95061;-33
2023/07/28 01:40:05;;;;;;;23.52;14.70;;;17.90;99.90;;;;;;4878327;28;93011;-35
2023/07/28 01:42:30;;;;;;;21.35;14.25;;;17.80;99.90;;;;;;4878657;28;95970;-32
2023/07/28 01:44:56;;;;;;;20.95;12.95;;;17.90;99.90;;;;;;4879704;28;94504;-32
2023/07/28 01:47:22;;;;;;;23.25;15.15;;;17.80;99.90;;;;;;4879260;28;93934;-33
2023/07/28 01:49:47;;;;;;;21.60;14.10;;;17.80;99.90;;;;;;4878966;28;91438;-34
2023/07/28 01:52:13;;;;;;;22.63;15.90;;;17.80;99.90;;;;;;4878101;28;95155;-38
2023/07/28 01:54:38;;;;;;;25.38;16.13;;;17.80;99.90;;;;;;4879015;28;95078;-34
2023/07/28 01:57:04;;;;;;;20.88;16.30;;;17.80;99.90;;;;;;4878480;28;94443;-33
2023/07/28 01:59:30;;;;;;;24.23;15.55;;;17.80;99.90;;;;;;4878399;28;94700;-39
2023/07/28 02:01:56;;;;;;;23.73;14.88;;;17.80;99.90;;;;;;4878977;28;96259;-32
2023/07/28 02:04:21;;;;;;;23.33;15.70;;;17.80;99.90;;;;;;4860206;28;95541;-32
2023/07/28 02:06:47;;;;;;;22.40;16.08;;;17.80;99.90;;;;;;4860927;28;92141;-33
2023/07/28 02:09:12;;;;;;;21.10;15.95;;;17.80;99.90;;;;;;4861070;28;94956;-38
2023/07/28 02:11:38;;;;;;;24.67;14.65;;;17.80;99.90;;;;;;4860533;28;94957;-39
2023/07/28 02:14:04;;;;;;;27.70;16.80;;;17.80;99.90;;;;;;4861258;28;94650;-37
2023/07/28 02:16:31;;;;;;;24.35;15.85;;;17.80;99.90;;;;;;4860456;28;94434;-38
2023/07/28 02:18:57;;;;;;;32.38;18.60;;;17.80;99.90;;;;;;4879398;28;93286;-37
2023/07/28 02:21:23;;;;;;;25.88;16.10;;;17.80;99.90;;;;;;4876770;28;95487;-35
2023/07/28 02:23:49;;;;;;;30.80;19.25;;;17.80;99.90;;;;;;4878083;28;95902;-37
2023/07/28 02:26:14;;;;;;;22.55;16.75;;;17.80;99.90;;;;;;4877621;28;94871;-32
2023/07/28 02:28:40;;;;;;;24.13;17.20;;;17.80;99.90;;;;;;4878081;28;94202;-32
2023/07/28 02:31:06;;;;;;;24.75;17.10;;;17.80;99.90;;;;;;4872053;28;94414;-32
2023/07/28 02:33:35;;;;;;;25.98;17.48;;;17.80;99.90;;;;;;4870703;28;94392;-35
2023/07/28 02:36:01;;;;;;;24.35;17.98;;;17.80;99.90;;;;;;4871033;28;93381;-35
2023/07/28 02:38:27;;;;;;;26.92;18.33;;;17.80;99.90;;;;;;4871687;28;91424;-38
2023/07/28 02:40:53;;;;;;;23.42;16.92;;;17.80;99.90;;;;;;4876081;28;94194;-36
2023/07/28 02:43:18;;;;;;;30.27;18.30;;;17.80;99.90;;;;;;4871229;28;94747;-33
2023/07/28 02:45:48;;;;;;;25.27;16.95;;;17.80;99.90;;;;;;4874128;28;94217;-37
2023/07/28 02:48:14;;;;;;;25.25;18.20;;;17.80;99.90;;;;;;4873376;28;92103;-36
2023/07/28 02:50:44;;;;;;;26.80;19.38;;;17.80;99.90;;;;;;4873437;28;94742;-37
2023/07/28 02:53:10;;;;;;;25.23;17.90;;;17.80;99.90;;;;;;4873228;28;96367;-34
2023/07/28 02:55:43;;;;;;;26.33;16.48;;;17.80;99.90;;;;;;4874734;28;94113;-34
2023/07/28 02:58:10;;;;;;;26.27;17.20;;;17.80;99.90;;;;;;4866046;28;93456;-35
2023/07/28 03:00:39;;;;;;;32.17;17.92;;;17.80;99.90;;;;;;4874088;28;93927;-40
2023/07/28 03:03:06;;;;;;;27.42;17.40;;;17.80;99.90;;;;;;4876502;28;95406;-41
2023/07/28 03:05:32;;;;;;;24.92;16.10;;;17.80;99.90;;;;;;4874225;28;94136;-35
2023/07/28 03:07:58;;;;;;;30.88;18.95;;;17.80;99.90;;;;;;4876314;28;94540;-33
2023/07/28 03:10:24;;;;;;;26.02;18.08;;;17.80;99.90;;;;;;4871975;28;95693;-34
2023/07/28 03:12:50;;;;;;;24.23;17.02;;;17.80;99.90;;;;;;4875832;28;95574;-31
2023/07/28 03:15:15;;;;;;;22.27;18.00;;;17.80;99.90;;;;;;4872812;28;93167;-34
2023/07/28 03:17:41;;;;;;;32.08;20.17;;;17.80;99.90;;;;;;4876496;28;94798;-35
2023/07/28 03:20:07;;;;;;;23.65;18.80;;;17.80;99.90;;;;;;4873444;28;94448;-35
2023/07/28 03:22:33;;;;;;;31.17;18.70;;;17.80;99.90;;;;;;4875695;28;94638;-40
2023/07/28 03:24:58;;;;;;;22.20;16.83;;;17.80;99.90;;;;;;4875304;28;93339;-34
2023/07/28 03:27:24;;;;;;;27.38;18.02;;;17.80;99.90;;;;;;4875926;28;93788;-41
2023/07/28 03:29:50;;;;;;;27.23;18.50;;;17.80;99.90;;;;;;4878079;28;94637;-38
2023/07/28 03:32:16;;;;;;;31.02;18.00;;;17.80;99.90;;;;;;4859397;28;94293;-33
2023/07/28 03:34:42;;;;;;;24.08;17.40;;;17.80;99.90;;;;;;4859764;28;93585;-36
2023/07/28 03:37:08;;;;;;;21.80;17.38;;;17.80;99.90;;;;;;4877240;28;94478;-36
2023/07/28 03:39:34;;;;;;;23.58;18.52;;;17.80;99.90;;;;;;4865023;28;94630;-33
2023/07/28 03:42:00;;;;;;;26.80;17.98;;;17.80;99.90;;;;;;4877957;28;94380;-34
2023/07/28 03:44:26;;;;;;;31.90;19.65;;;17.80;99.90;;;;;;4877494;28;92820;-37
2023/07/28 03:46:51;;;;;;;27.65;17.92;;;17.80;99.90;;;;;;4876769;28;93534;-39
2023/07/28 03:49:17;;;;;;;23.88;18.42;;;17.80;99.90;;;;;;4877090;28;95379;-36
2023/07/28 03:51:43;;;;;;;25.25;18.63;;;17.80;99.90;;;;;;4877162;28;95488;-37
2023/07/28 03:54:08;;;;;;;29.30;17.50;;;17.80;99.90;;;;;;4878024;28;94072;-37
2023/07/28 03:56:34;;;;;;;27.13;16.35;;;17.80;99.90;;;;;;4876393;28;93494;-32
2023/07/28 03:58:59;;;;;;;25.25;15.75;;;17.80;99.90;;;;;;4876064;28;95562;-37
2023/07/28 04:01:25;;;;;;;24.63;17.40;;;17.80;99.90;;;;;;4872250;28;95839;-36
2023/07/28 04:03:51;;;;;;;28.25;17.23;;;17.80;99.90;;;;;;4877556;28;94252;-34
2023/07/28 04:06:16;;;;;;;34.03;18.05;;;17.80;99.90;;;;;;4878247;28;92517;-35
2023/07/28 04:08:42;;;;;;;29.85;19.15;;;17.80;99.90;;;;;;4880196;28;94413;-33
2023/07/28 04:11:08;;;;;;;23.35;18.17;;;17.80;99.90;;;;;;4878806;28;93490;-38
2023/07/28 04:13:34;;;;;;;23.02;16.95;;;17.80;99.90;;;;;;4879964;28;93529;-36
2023/07/28 04:16:00;;;;;;;24.35;17.25;;;17.80;99.90;;;;;;4878905;28;94415;-41
2023/07/28 04:18:26;;;;;;;26.15;17.55;;;17.80;99.90;;;;;;4880006;28;96894;-31
2023/07/28 04:20:52;;;;;;;36.22;16.83;;;17.80;99.90;;;;;;4877801;28;94519;-33
2023/07/28 04:23:17;;;;;;;24.90;17.52;;;17.80;99.90;;;;;;4879878;28;93901;-37
2023/07/28 04:25:43;;;;;;;22.58;15.95;;;17.80;99.90;;;;;;4878981;28;93432;-37
2023/07/28 04:28:08;;;;;;;27.85;16.45;;;17.80;99.90;;;;;;4879900;28;94772;-35
2023/07/28 04:30:34;;;;;;;23.77;16.63;;;17.80;99.90;;;;;;4880267;28;95103;-33
2023/07/28 04:33:00;;;;;;;21.60;16.88;;;17.90;99.90;;;;;;4870091;28;92291;-34
2023/07/28 04:35:26;;;;;;;26.50;17.73;;;17.90;99.90;;;;;;4862224;28;94512;-32
2023/07/28 04:37:51;;;;;;;27.13;16.63;;;17.80;99.90;;;;;;4872114;28;95568;-32
2023/07/28 04:40:17;;;;;;;21.83;14.80;;;17.90;99.90;;;;;;4862949;28;94704;-32
2023/07/28 04:42:43;;;;;;;22.85;16.73;;;17.90;99.90;;;;;;4872653;28;92852;-33
2023/07/28 04:45:09;;;;;;;24.40;17.52;;;17.90;99.90;;;;;;4863052;28;94621;-37
2023/07/28 04:47:34;;;;;;;29.48;16.13;;;17.90;99.90;;;;;;4861185;28;96039;-34
2023/07/28 04:50:00;;;;;;;28.45;17.27;;;17.90;99.90;;;;;;4862647;28;94589;-36
2023/07/28 04:52:26;;;;;;;25.27;17.95;;;17.90;99.90;;;;;;4873397;28;93918;-37
2023/07/28 04:54:51;;;;;;;21.63;17.42;;;17.90;99.90;;;;;;4861299;28;93394;-37
2023/07/28 04:57:19;;;;;;;32.22;18.77;;;17.90;99.90;;;;;;4862294;28;95949;-33
2023/07/28 04:59:45;;;;;;;22.75;17.15;;;17.90;99.90;;;;;;4861537;28;94740;-33
2023/07/28 05:02:10;;;;;;;26.30;17.35;;;17.90;99.90;;;;;;4873660;28;94897;-33
2023/07/28 05:04:36;;;;;;;29.50;18.58;;;17.90;99.90;;;;;;4877147;28;93818;-37
2023/07/28 05:07:03;;;;;;;19.80;16.42;;;17.90;99.90;;;;;;4880310;28;95058;-35
2023/07/28 05:09:29;;;;;;;28.10;18.85;;;18.00;99.90;;;;;;4876556;28;94632;-35
2023/07/28 05:11:55;;;;;;;34.70;18.08;;;18.00;99.90;;;;;;4879477;28;95568;-36
2023/07/28 05:14:20;;;;;;;24.25;17.77;;;18.00;99.90;;;;;;4879097;28;93747;-38
2023/07/28 05:16:46;;;;;;;30.75;17.23;;;18.00;99.90;;;;;;4879434;28;95212;-31
2023/07/28 05:19:13;;;;;;;23.10;16.92;;;18.00;99.90;;;;;;4879750;28;94186;-37
2023/07/28 05:21:38;;;;;;;26.23;17.55;;;18.00;99.90;;;;;;4878639;28;94576;-34
2023/07/28 05:24:04;;;;;;;24.80;17.50;;;18.00;99.90;;;;;;4875402;28;93457;-37
2023/07/28 05:26:30;;;;;;;22.65;16.23;;;18.00;99.90;;;;;;4876493;28;94645;-34
2023/07/28 05:28:56;;;;;;;31.92;17.48;;;18.00;99.90;;;;;;4877998;28;94122;-34
2023/07/28 05:31:21;;;;;;;24.83;16.52;;;18.00;99.90;;;;;;4878401;28;94371;-32
2023/07/28 05:33:47;;;;;;;32.25;17.48;;;18.00;99.90;;;;;;4877648;28;94141;-39
2023/07/28 05:36:13;;;;;;;32.47;18.45;;;18.00;99.90;;;;;;4877031;28;95285;-34
2023/07/28 05:38:38;;;;;;;36.58;19.83;;;18.00;99.90;;;;;;4876991;28;95948;-33
2023/07/28 05:41:04;;;;;;;33.33;18.40;;;18.00;99.90;;;;;;4878593;28;95041;-33
2023/07/28 05:43:33;;;;;;;23.52;18.58;;;18.00;99.90;;;;;;4877260;28;93683;-36
2023/07/28 05:45:59;;;;;;;31.20;17.50;;;18.00;99.90;;;;;;4877069;28;95594;-34
2023/07/28 05:48:26;;;;;;;23.52;17.45;;;18.10;99.90;;;;;;4877134;28;94612;-34
2023/07/28 05:50:53;;;;;;;23.98;17.65;;;18.10;99.90;;;;;;4878125;28;92502;-36
2023/07/28 05:53:22;;;;;;;26.20;18.27;;;18.10;99.90;;;;;;4877143;28;92342;-34
2023/07/28 05:55:48;;;;;;;23.58;18.35;;;18.10;99.90;;;;;;4877114;28;95151;-37
2023/07/28 05:58:14;;;;;;;28.42;19.13;;;18.20;99.90;;;;;;4877039;28;94707;-39
2023/07/28 06:00:40;;;;;;;27.27;18.67;;;18.20;99.90;;;;;;4873336;28;96075;-34
2023/07/28 06:03:07;;;;;;;24.70;17.02;;;18.20;99.90;;;;;;4877265;28;92771;-36
2023/07/28 06:05:32;;;;;;;29.35;18.15;;;18.20;99.90;;;;;;4877813;28;95203;-33
2023/07/28 06:07:58;;;;;;;21.02;16.45;;;18.30;99.90;;;;;;4877563;28;95028;-37
2023/07/28 06:10:24;;;;;;;23.80;17.63;;;18.30;99.90;;;;;;4876815;28;93427;-34
2023/07/28 06:12:49;;;;;;;24.48;16.42;;;18.30;99.90;;;;;;4877814;28;93768;-36
2023/07/28 06:15:15;;;;;;;22.25;16.17;;;18.40;99.90;;;;;;4876783;28;94038;-34
2023/07/28 06:17:41;;;;;;;22.60;15.65;;;18.40;99.90;;;;;;4877972;28;94649;-35
2023/07/28 06:20:07;;;;;;;31.27;16.77;;;18.40;99.90;;;;;;4877659;28;92163;-38
2023/07/28 06:22:33;;;;;;;27.00;17.95;;;18.40;99.90;;;;;;4877269;28;93683;-36
2023/07/28 06:24:58;;;;;;;26.20;18.65;;;18.40;99.90;;;;;;4875865;28;95578;-34
2023/07/28 06:27:24;;;;;;;25.30;15.27;;;18.40;99.90;;;;;;4876625;28;95135;-35
2023/07/28 06:29:49;;;;;;;22.98;16.20;;;18.40;99.90;;;;;;4874776;28;94378;-36
2023/07/28 06:32:15;;;;;;;24.83;16.35;;;18.40;99.90;;;;;;4875715;28;93307;-33
2023/07/28 06:34:41;;;;;;;24.98;16.33;;;18.40;99.90;;;;;;4876995;28;93847;-36
2023/07/28 06:37:07;;;;;;;28.70;16.02;;;18.40;99.90;;;;;;4876424;28;95014;-34
2023/07/28 06:39:32;;;;;;;23.40;17.02;;;18.50;99.90;;;;;;4877325;28;92430;-32
2023/07/28 06:41:58;;;;;;;21.83;15.85;;;18.50;99.90;;;;;;4877391;28;91804;-32
2023/07/28 06:44:23;;;;;;;29.40;16.52;;;18.50;99.90;;;;;;4875943;28;94500;-32
2023/07/28 06:46:50;;;;;;;24.25;16.42;;;18.50;99.90;;;;;;4877142;28;94530;-34
2023/07/28 06:49:16;;;;;;;21.40;14.90;;;18.50;99.90;;;;;;4875390;28;94623;-33
2023/07/28 06:51:41;;;;;;;29.27;16.63;;;18.50;99.90;;;;;;4874460;28;92594;-37
2023/07/28 06:54:12;;;;;;;23.35;15.65;;;18.60;99.90;;;;;;4877335;28;94152;-39
2023/07/28 06:56:38;;;;;;;17.80;15.70;;;18.60;99.90;;;;;;4865048;28;94549;-36
2023/07/28 06:59:03;;;;;;;21.73;15.57;;;18.60;99.90;;;;;;4873797;28;93927;-38
2023/07/28 07:01:29;;;;;;;17.15;14.95;;;18.60;99.90;;;;;;4876873;28;92902;-38
2023/07/28 07:03:55;;;;;;;22.65;14.93;;;18.60;99.90;;;;;;4874584;28;96213;-35
2023/07/28 07:06:21;;;;;;;15.82;13.93;;;18.70;99.90;;;;;;4877124;28;94122;-40
2023/07/28 07:08:47;;;;;;;19.42;14.38;;;18.70;99.90;;;;;;4876819;28;92568;-32
2023/07/28 07:11:12;;;;;;;21.08;15.65;;;18.70;99.90;;;;;;4875794;28;94453;-33
2023/07/28 07:13:38;;;;;;;20.95;13.38;;;18.80;99.90;;;;;;4876230;28;95991;-32
2023/07/28 07:16:04;;;;;;;22.08;14.55;;;18.90;99.90;;;;;;4876105;28;95434;-33
2023/07/28 07:18:29;;;;;;;15.75;14.07;;;18.90;99.90;;;;;;4859566;28;93820;-35
2023/07/28 07:20:55;;;;;;;20.40;13.43;;;18.90;99.90;;;;;;4868722;28;92195;-34
2023/07/28 07:23:21;;;;;;;17.08;14.40;;;19.00;99.90;;;;;;4859606;28;93788;-37
2023/07/28 07:25:49;;;;;;;20.67;14.80;;;19.10;99.90;;;;;;4859074;28;94724;-37
2023/07/28 07:28:15;;;;;;;14.57;12.73;;;19.20;99.90;;;;;;4863871;28;94022;-31
2023/07/28 07:30:41;;;;;;;12.77;11.57;;;19.40;99.90;;;;;;4870469;28;93329;-37
2023/07/28 07:33:07;;;;;;;16.75;12.25;;;19.50;99.90;;;;;;4857096;28;94449;-37
2023/07/28 07:35:37;;;;;;;13.77;10.82;;;20.00;99.90;;;;;;4856750;28;95468;-38
2023/07/28 07:38:04;;;;;;;14.38;10.27;;;20.30;99.90;;;;;;4865840;28;94064;-34
2023/07/28 07:40:29;;;;;;;17.08;10.48;;;20.40;99.90;;;;;;4856874;28;93883;-34
2023/07/28 07:42:56;;;;;;;12.52;9.57;;;20.70;99.90;;;;;;4870672;28;94302;-37
2023/07/28 07:45:21;;;;;;;16.45;11.57;;;21.20;99.90;;;;;;4875695;28;93868;-34
2023/07/28 07:47:48;;;;;;;11.20;10.00;;;21.50;99.90;;;;;;4876023;28;93018;-39
2023/07/28 07:50:13;;;;;;;13.15;8.70;;;21.40;99.90;;;;;;4876256;28;92941;-34
2023/07/28 07:52:39;;;;;;;11.40;8.20;;;21.40;99.90;;;;;;4871935;28;94550;-36
2023/07/28 07:55:06;;;;;;;15.60;9.38;;;21.30;99.90;;;;;;4874062;28;94869;-36
2023/07/28 07:57:32;;;;;;;17.17;10.32;;;21.30;99.90;;;;;;4869479;28;93495;-33
2023/07/28 07:59:58;;;;;;;9.68;8.77;;;21.20;99.90;;;;;;4875391;28;94947;-39
2023/07/28 08:02:24;;;;;;;10.02;9.05;;;21.20;99.90;;;;;;4871891;28;95070;-35
2023/07/28 08:04:51;;;;;;;12.15;10.80;;;21.30;99.90;;;;;;4867708;28;96332;-33
2023/07/28 08:07:17;;;;;;;9.87;8.87;;;21.50;99.90;;;;;;4875134;28;94657;-40
2023/07/28 08:09:43;;;;;;;11.18;9.98;;;21.40;99.90;;;;;;4908467;23;92160;-33
2023/07/28 08:12:09;;;;;;;10.95;9.43;;;21.30;99.90;;;;;;4873858;28;96494;-34
2023/07/28 08:14:34;;;;;;;12.80;10.07;;;21.20;99.90;;;;;;4876726;28;94751;-35
2023/07/28 08:17:00;;;;;;;12.43;9.48;;;21.30;99.90;;;;;;4874561;28;94793;-36
2023/07/28 08:19:25;;;;;;;12.60;10.02;;;21.60;99.90;;;;;;4875955;28;92349;-35
2023/07/28 08:21:51;;;;;;;11.52;10.00;;;21.60;99.90;;;;;;4875049;28;94842;-33
2023/07/28 08:24:17;;;;;;;12.77;9.43;;;21.50;99.90;;;;;;4875203;28;95075;-37
2023/07/28 08:26:42;;;;;;;10.65;8.98;;;21.30;99.90;;;;;;4875745;28;94423;-37
2023/07/28 08:29:08;;;;;;;13.48;9.75;;;21.40;99.90;;;;;;4875927;28;93375;-38
2023/07/28 08:31:34;;;;;;;14.60;9.88;;;21.50;99.90;;;;;;4866437;28;95055;-37
2023/07/28 08:33:59;;;;;;;10.48;9.45;;;21.40;99.90;;;;;;4871126;28;96269;-35
2023/07/28 08:36:25;;;;;;;9.30;8.15;;;21.40;99.90;;;;;;4865886;28;93950;-36
2023/07/28 08:38:50;;;;;;;10.85;9.15;;;21.30;99.90;;;;;;4871257;28;92622;-34
2023/07/28 08:41:16;;;;;;;10.60;9.40;;;21.10;99.90;;;;;;4863369;28;94599;-35
2023/07/28 08:43:42;;;;;;;12.90;10.18;;;21.10;99.90;;;;;;4875846;28;94605;-37
2023/07/28 08:46:08;;;;;;;14.13;9.18;;;20.90;99.90;;;;;;4873218;28;94002;-35
2023/07/28 08:48:33;;;;;;;12.38;10.25;;;21.00;99.90;;;;;;4874363;28;94605;-38
2023/07/28 08:50:59;;;;;;;9.13;8.30;;;21.20;99.90;;;;;;4873240;28;95595;-35
2023/07/28 08:53:25;;;;;;;10.05;8.52;;;21.30;99.90;;;;;;4876618;28;95545;-33
2023/07/28 08:55:51;;;;;;;10.43;9.10;;;21.40;99.90;;;;;;4876080;28;94679;-35
2023/07/28 08:58:20;;;;;;;10.70;9.38;;;21.30;99.90;;;;;;4877322;28;94273;-37
2023/07/28 09:00:49;;;;;;;9.10;8.20;;;21.20;99.90;;;;;;4875228;28;94969;-35
2023/07/28 09:03:19;;;;;;;11.90;9.35;;;21.20;99.90;;;;;;4875844;28;94588;-32
2023/07/28 09:05:48;;;;;;;8.98;7.18;;;21.20;99.90;;;;;;4873541;28;93909;-35
2023/07/28 09:08:15;;;;;;;15.38;8.90;;;21.50;99.90;;;;;;4875205;28;92411;-34
2023/07/28 09:10:42;;;;;;;10.17;8.70;;;21.80;99.90;;;;;;4872419;28;95082;-39
2023/07/28 09:13:11;;;;;;;10.10;8.43;;;21.80;99.90;;;;;;4863216;28;93681;-38
2023/07/28 09:15:37;;;;;;;9.55;8.25;;;22.00;99.90;;;;;;4863076;28;95200;-35
2023/07/28 09:18:02;;;;;;;8.55;7.03;;;21.90;99.90;;;;;;4878620;28;94336;-39
2023/07/28 09:20:37;;;;;;;8.52;7.32;;;21.80;99.90;;;;;;4878059;28;94276;-32
2023/07/28 09:23:03;;;;;;;8.70;7.20;;;21.60;99.90;;;;;;4877379;28;94563;-36
2023/07/28 09:25:33;;;;;;;7.15;6.55;;;21.50;99.90;;;;;;4877992;28;92243;-34
2023/07/28 09:27:58;;;;;;;7.95;6.13;;;21.40;99.90;;;;;;4877589;28;93149;-36
2023/07/28 09:30:26;;;;;;;8.30;6.43;;;21.20;99.90;;;;;;4873494;28;95677;-36
2023/07/28 09:32:55;;;;;;;12.17;7.63;;;21.20;99.90;;;;;;4858900;28;95244;-35
2023/07/28 09:35:22;;;;;;;8.02;5.75;;;21.50;99.90;;;;;;4863584;28;93832;-37
2023/07/28 09:37:50;;;;;;;10.07;6.43;;;21.90;99.90;;;;;;4878892;28;94718;-37
2023/07/28 09:40:21;;;;;;;5.78;5.28;;;21.90;99.90;;;;;;4877321;28;96067;-33
2023/07/28 09:42:49;;;;;;;5.40;4.80;;;22.00;99.90;;;;;;4877966;28;95306;-34
2023/07/28 09:45:15;;;;;;;;;;;22.20;99.90;;;;;;4875789;28;94989;-32
2023/07/28 09:47:47;;;;;;;5.13;4.63;;;22.00;99.90;;;;;;4876645;28;94649;-38
2023/07/28 09:50:16;;;;;;;7.10;4.63;;;22.50;99.90;;;;;;4876103;28;93488;-32
2023/07/28 09:52:52;;;;;;;5.00;4.60;;;22.70;99.90;;;;;;4874459;28;94894;-33
2023/07/28 09:55:18;;;;;;;6.43;4.72;;;23.00;99.90;;;;;;4876682;28;92742;-35
2023/07/28 09:57:51;;;;;;;6.15;5.57;;;23.20;99.90;;;;;;4874651;28;93746;-33
2023/07/28 10:00:18;;;;;;;7.13;6.15;;;23.50;99.90;;;;;;4875550;28;94433;-33
2023/07/28 10:02:45;;;;;;;5.45;4.95;;;23.50;99.90;;;;;;4877310;28;94943;-36
2023/07/28 10:05:10;;;;;;;5.38;4.80;;;23.50;99.90;;;;;;4876934;28;95457;-33
2023/07/28 10:07:39;;;;;;;7.40;5.05;;;23.60;99.90;;;;;;4877904;28;92955;-36
2023/07/28 10:10:07;;;;;;;5.78;4.40;;;23.50;99.90;;;;;;4876147;28;94577;-39
2023/07/28 10:12:55;;;;;;;6.72;6.22;;;23.40;99.90;;;;;;4877389;28;94912;-38
2023/07/28 10:15:27;;;;;;;5.32;4.82;;;23.10;99.90;;;;;;4877157;28;93799;-33
2023/07/28 10:17:57;;;;;;;11.65;6.18;;;22.90;99.90;;;;;;4877367;28;94252;-34
2023/07/28 10:20:41;;;;;;;7.03;6.10;;;22.80;99.90;;;;;;4876314;28;94671;-37
2023/07/28 10:23:16;;;;;;;10.05;7.00;;;23.10;99.90;;;;;;4876806;28;94504;-38
2023/07/28 10:25:44;;;;;;;13.57;6.20;;;23.10;99.90;;;;;;4875888;28;94297;-37
2023/07/28 10:28:34;;;;;;;9.05;6.85;;;23.30;99.90;;;;;;4876220;28;94099;-38
2023/07/28 10:31:01;;;;;;;9.50;6.32;;;23.40;99.90;;;;;;4866329;28;95654;-32
2023/07/28 10:33:33;;;;;;;6.80;5.45;;;23.50;99.90;;;;;;4861665;28;94578;-38
2023/07/28 10:35:59;;;;;;;7.72;5.07;;;23.70;99.90;;;;;;4858397;28;93029;-33
2023/07/28 10:38:32;;;;;;;6.07;4.32;;;23.70;99.90;;;;;;4874259;28;93792;-36
2023/07/28 10:41:08;;;;;;;6.90;4.28;;;23.70;99.90;;;;;;4877480;28;94858;-33
2023/07/28 10:43:34;;;;;;;5.60;4.40;;;23.70;99.90;;;;;;4858581;28;94450;-34
2023/07/28 10:46:00;;;;;;;7.18;4.80;;;23.70;99.90;;;;;;4859174;28;94716;-34
2023/07/28 10:48:26;;;;;;;9.43;5.05;;;23.70;99.90;;;;;;4876792;28;92467;-33
2023/07/28 10:50:52;;;;;;;6.32;4.57;;;23.60;99.90;;;;;;4864651;28;94348;-38
2023/07/28 10:53:17;;;;;;;4.55;4.15;;;23.50;99.90;;;;;;4863742;28;94703;-34
2023/07/28 10:55:44;;;;;;;3.80;3.45;;;23.30;99.90;;;;;;4877332;28;94024;-32
2023/07/28 10:58:10;;;;;;;4.82;4.32;;;23.30;99.90;;;;;;4877635;28;93460;-32
2023/07/28 11:00:36;;;;;;;6.57;4.47;;;23.10;99.90;;;;;;4876376;28;94641;-32
2023/07/28 11:03:02;;;;;;;5.07;3.67;;;23.10;99.90;;;;;;4877118;28;96182;-33
2023/07/28 11:05:29;;;;;;;4.95;4.47;;;23.10;99.90;;;;;;4876126;28;94292;-36
2023/07/28 11:08:02;;;;;;;5.13;4.15;;;22.90;99.90;;;;;;4876913;28;92187;-33
2023/07/28 11:10:29;;;;;;;4.13;3.83;;;23.00;99.90;;;;;;4875405;28;94390;-35
2023/07/28 11:12:58;;;;;;;5.03;4.50;;;22.80;99.90;;;;;;4875870;28;94353;-32
2023/07/28 11:15:25;;;;;;;7.22;5.35;;;22.80;99.90;;;;;;4863542;28;93414;-33
2023/07/28 11:17:51;;;;;;;6.45;5.20;;;22.80;99.90;;;;;;4876945;28;92246;-35
2023/07/28 11:20:21;;;;;;;6.10;5.50;;;22.70;99.90;;;;;;4874997;28;96018;-37
2023/07/28 11:22:56;;;;;;;5.90;5.40;;;22.70;99.90;;;;;;4876456;28;95606;-33
2023/07/28 11:25:23;;;;;;;4.05;3.72;;;22.70;99.90;;;;;;4864278;28;94823;-36
2023/07/28 11:27:50;;;;;;;6.07;5.55;;;22.70;99.90;;;;;;4876162;28;94565;-36
2023/07/28 11:30:16;;;;;;;6.65;6.05;;;22.50;99.90;;;;;;4876279;28;94754;-36
2023/07/28 11:32:44;;;;;;;8.20;6.75;;;22.40;99.90;;;;;;4866520;28;94418;-32
2023/07/28 11:35:14;;;;;;;6.70;6.03;;;22.40;99.90;;;;;;4862550;28;94082;-32
2023/07/28 11:37:42;;;;;;;7.35;6.07;;;22.30;99.90;;;;;;4861051;28;93622;-34
2023/07/28 11:40:12;;;;;;;8.32;7.40;;;22.30;99.90;;;;;;4864256;28;95304;-34
2023/07/28 11:42:54;;;;;;;7.05;6.25;;;22.40;99.90;;;;;;4867713;28;94932;-38
2023/07/28 11:45:22;;;;;;;7.18;6.57;;;22.20;99.90;;;;;;4869844;28;95884;-33
2023/07/28 11:48:01;;;;;;;;;;;22.20;99.90;;;;;;4862124;28;92793;-34
2023/07/28 11:50:47;;;;;;;8.65;6.20;;;22.10;99.90;;;;;;4877405;28;94558;-36
2023/07/28 11:53:13;;;;;;;7.22;6.38;;;22.10;99.90;;;;;;4861534;28;97317;-32
2023/07/28 11:55:39;;;;;;;9.32;7.85;;;22.00;99.90;;;;;;4858802;28;93682;-36
2023/07/28 11:58:06;;;;;;;8.15;7.18;;;22.10;99.90;;;;;;4864945;28;93641;-36
2023/07/28 12:00:37;;;;;;;8.88;7.97;;;22.00;99.90;;;;;;4867608;28;94792;-35
2023/07/28 12:03:12;;;;;;;8.15;7.32;;;22.00;99.90;;;;;;4876476;28;93998;-37
2023/07/28 12:05:58;;;;;;;7.32;6.60;;;22.00;99.90;;;;;;4875045;28;92153;-36
2023/07/28 12:08:37;;;;;;;14.40;8.40;;;22.00;99.90;;;;;;4874583;28;94712;-31
2023/07/28 12:11:03;;;;;;;8.43;7.50;;;22.00;99.90;;;;;;4864228;28;95294;-32
2023/07/28 12:13:28;;;;;;;7.85;7.15;;;21.90;99.90;;;;;;4875076;28;95658;-35
2023/07/28 12:15:54;;;;;;;8.80;7.97;;;22.00;99.90;;;;;;4875568;28;94461;-35
2023/07/28 12:18:20;;;;;;;9.45;7.93;;;22.00;99.90;;;;;;4874820;28;93326;-35
2023/07/28 12:20:51;;;;;;;8.60;7.15;;;22.20;99.90;;;;;;4875534;28;95380;-32
2023/07/28 12:23:19;;;;;;;10.20;9.23;;;22.30;99.90;;;;;;4874792;28;94302;-34
2023/07/28 12:25:45;;;;;;;;;;;22.40;99.90;;;;;;4879825;28;93661;-36
2023/07/28 12:28:11;;;;;;;9.95;7.63;;;22.50;99.90;;;;;;4879805;28;93896;-33
2023/07/28 12:30:37;;;;;;;9.23;7.68;;;22.50;99.90;;;;;;4879435;28;94226;-36
2023/07/28 12:33:04;;;;;;;8.82;6.32;;;22.70;99.90;;;;;;4878819;28;95781;-35